POE596 KFLL-CYHM
Flight info
| Callsign | POE596 |
|---|---|
| Flight time | N/A |
| Altitude | 37000 |
| Route | AGERS1 DUCEN Q87 VIYAP Q69 RICCS DCT TIKUM TIKUM3 |
| Aircraft | E295/M-SDE3GILORVW/S |
Departure
| Time | 2026-05-07 23:21 |
|---|---|
| Airport | Fort Lauderdale Hollywood International Airport (KFLL) |
Arrival
| Time | N/A |
|---|---|
| Airport | John C. Munro Hamilton International Airport (CYHM) |
| Time | Latitude | Longitude | Altitude | Speed | Heading |
|---|---|---|---|---|---|
| 2026-05-07 22:59 | 26.06881 | -80.14255 | 15 ft | 0 kts | 0° |
| 2026-05-07 23:12 | 26.06879 | -80.14255 | 14 ft | 1 kts | 0° |
| 2026-05-07 23:12 | 26.06861 | -80.14255 | 17 ft | 3 kts | 0° |
| 2026-05-07 23:12 | 26.06842 | -80.14255 | 15 ft | 3 kts | 354° |
| 2026-05-07 23:12 | 26.06825 | -80.14250 | 16 ft | 3 kts | 308° |
| 2026-05-07 23:13 | 26.06817 | -80.14233 | 14 ft | 2 kts | 272° |
| 2026-05-07 23:13 | 26.06817 | -80.14220 | 15 ft | 3 kts | 270° |
| 2026-05-07 23:13 | 26.06817 | -80.14207 | 14 ft | 0 kts | 270° |
| 2026-05-07 23:15 | 26.06817 | -80.14211 | 15 ft | 2 kts | 270° |
| 2026-05-07 23:16 | 26.06817 | -80.14235 | 14 ft | 5 kts | 270° |
| 2026-05-07 23:16 | 26.06792 | -80.14352 | 14 ft | 23 kts | 256° |
| 2026-05-07 23:16 | 26.06766 | -80.14545 | 14 ft | 28 kts | 265° |
| 2026-05-07 23:16 | 26.06838 | -80.14716 | 14 ft | 26 kts | 316° |
| 2026-05-07 23:17 | 26.06967 | -80.14858 | 16 ft | 26 kts | 315° |
| 2026-05-07 23:17 | 26.07099 | -80.15001 | 15 ft | 27 kts | 315° |
| 2026-05-07 23:17 | 26.07244 | -80.15126 | 14 ft | 27 kts | 350° |
| 2026-05-07 23:17 | 26.07434 | -80.15126 | 14 ft | 27 kts | 360° |
| 2026-05-07 23:18 | 26.07557 | -80.15158 | 14 ft | 17 kts | 297° |
| 2026-05-07 23:18 | 26.07564 | -80.15297 | 14 ft | 19 kts | 270° |
| 2026-05-07 23:18 | 26.07565 | -80.15451 | 14 ft | 21 kts | 271° |
| 2026-05-07 23:18 | 26.07566 | -80.15593 | 14 ft | 14 kts | 270° |
| 2026-05-07 23:19 | 26.07566 | -80.15718 | 15 ft | 18 kts | 271° |
| 2026-05-07 23:19 | 26.07567 | -80.15865 | 15 ft | 21 kts | 271° |
| 2026-05-07 23:19 | 26.07568 | -80.16040 | 15 ft | 25 kts | 270° |
| 2026-05-07 23:19 | 26.07566 | -80.16235 | 15 ft | 25 kts | 271° |
| 2026-05-07 23:20 | 26.07571 | -80.16376 | 15 ft | 17 kts | 270° |
| 2026-05-07 23:20 | 26.07571 | -80.16516 | 15 ft | 19 kts | 269° |
| 2026-05-07 23:20 | 26.07599 | -80.16639 | 15 ft | 16 kts | 334° |
| 2026-05-07 23:20 | 26.07687 | -80.16612 | 17 ft | 11 kts | 62° |
| 2026-05-07 23:21 | 26.07693 | -80.16429 | 19 ft | 53 kts | 91° |
| 2026-05-07 23:21 | 26.07689 | -80.15757 | 16 ft | 118 kts | 90° |
| 2026-05-07 23:21 | 26.07687 | -80.14656 | 118 ft | 159 kts | 92° |
| 2026-05-07 23:21 | 26.07697 | -80.13364 | 761 ft | 173 kts | 92° |
| 2026-05-07 23:22 | 26.07883 | -80.12009 | 1493 ft | 185 kts | 77° |
| 2026-05-07 23:22 | 26.08196 | -80.10535 | 2150 ft | 205 kts | 78° |
| 2026-05-07 23:22 | 26.08580 | -80.08906 | 2672 ft | 232 kts | 73° |
| 2026-05-07 23:22 | 26.09393 | -80.07233 | 3068 ft | 267 kts | 47° |
| 2026-05-07 23:23 | 26.10965 | -80.06104 | 3891 ft | 273 kts | 16° |
| 2026-05-07 23:23 | 26.12793 | -80.05557 | 5038 ft | 274 kts | 14° |
| 2026-05-07 23:23 | 26.14633 | -80.04962 | 6109 ft | 278 kts | 9° |
| 2026-05-07 23:23 | 26.16555 | -80.04885 | 7089 ft | 279 kts | 347° |
| 2026-05-07 23:24 | 26.18390 | -80.05607 | 8076 ft | 283 kts | 336° |
| 2026-05-07 23:24 | 26.20246 | -80.06429 | 9037 ft | 288 kts | 339° |
| 2026-05-07 23:24 | 26.22050 | -80.07466 | 10011 ft | 296 kts | 323° |
| 2026-05-07 23:24 | 26.23475 | -80.09190 | 10592 ft | 315 kts | 298° |
| 2026-05-07 23:25 | 26.24177 | -80.11479 | 11618 ft | 317 kts | 284° |
| 2026-05-07 23:25 | 26.24793 | -80.13840 | 12606 ft | 318 kts | 291° |
| 2026-05-07 23:25 | 26.25934 | -80.15960 | 13552 ft | 321 kts | 313° |
| 2026-05-07 23:25 | 26.27768 | -80.17400 | 14466 ft | 328 kts | 333° |
| 2026-05-07 23:26 | 26.29876 | -80.18417 | 15360 ft | 332 kts | 334° |
| 2026-05-07 23:26 | 26.31962 | -80.19534 | 16277 ft | 334 kts | 331° |
| 2026-05-07 23:26 | 26.34040 | -80.20711 | 17160 ft | 337 kts | 331° |
| 2026-05-07 23:26 | 26.36142 | -80.21872 | 18024 ft | 340 kts | 333° |
| 2026-05-07 23:27 | 26.40778 | -80.23077 | 19396 ft | 352 kts | 351° |
| 2026-05-07 23:27 | 26.43230 | -80.23313 | 20053 ft | 356 kts | 351° |
| 2026-05-07 23:27 | 26.45704 | -80.23561 | 20707 ft | 359 kts | 351° |
| 2026-05-07 23:28 | 26.48206 | -80.23819 | 21331 ft | 362 kts | 350° |
| 2026-05-07 23:28 | 26.50725 | -80.24084 | 21959 ft | 366 kts | 350° |
| 2026-05-07 23:28 | 26.53269 | -80.24346 | 22566 ft | 369 kts | 350° |
| 2026-05-07 23:28 | 26.55827 | -80.24640 | 23214 ft | 371 kts | 347° |
| 2026-05-07 23:29 | 26.58392 | -80.25036 | 23760 ft | 374 kts | 346° |
| 2026-05-07 23:29 | 26.60974 | -80.25443 | 24245 ft | 376 kts | 346° |
| 2026-05-07 23:29 | 26.63569 | -80.25876 | 24718 ft | 378 kts | 346° |
| 2026-05-07 23:29 | 26.66180 | -80.26314 | 25166 ft | 381 kts | 346° |
| 2026-05-07 23:30 | 26.68807 | -80.26759 | 25620 ft | 383 kts | 345° |
| 2026-05-07 23:30 | 26.71382 | -80.27458 | 26059 ft | 380 kts | 337° |
| 2026-05-07 23:30 | 26.73913 | -80.28343 | 26471 ft | 382 kts | 336° |
| 2026-05-07 23:30 | 26.76379 | -80.29438 | 26897 ft | 381 kts | 331° |
| 2026-05-07 23:31 | 26.78866 | -80.30526 | 27307 ft | 388 kts | 338° |
| 2026-05-07 23:31 | 26.81421 | -80.31489 | 27703 ft | 387 kts | 333° |
| 2026-05-07 23:31 | 26.83907 | -80.32674 | 28093 ft | 390 kts | 334° |
| 2026-05-07 23:31 | 26.86496 | -80.33634 | 28521 ft | 393 kts | 336° |
| 2026-05-07 23:32 | 26.89036 | -80.34763 | 28880 ft | 392 kts | 331° |
| 2026-05-07 23:32 | 26.91599 | -80.35866 | 29243 ft | 398 kts | 338° |
| 2026-05-07 23:32 | 26.94214 | -80.36865 | 29678 ft | 395 kts | 333° |
| 2026-05-07 23:32 | 26.96785 | -80.37987 | 29931 ft | 400 kts | 335° |
| 2026-05-07 23:33 | 26.99413 | -80.39018 | 30310 ft | 400 kts | 336° |
| 2026-05-07 23:33 | 27.02037 | -80.40052 | 30658 ft | 400 kts | 335° |
| 2026-05-07 23:33 | 27.04680 | -80.41125 | 30810 ft | 405 kts | 335° |
| 2026-05-07 23:33 | 27.07328 | -80.42197 | 31156 ft | 405 kts | 335° |
| 2026-05-07 23:34 | 27.09972 | -80.43318 | 31309 ft | 409 kts | 334° |
| 2026-05-07 23:34 | 27.12625 | -80.44466 | 31664 ft | 408 kts | 334° |
| 2026-05-07 23:34 | 27.15272 | -80.45628 | 31918 ft | 412 kts | 333° |
| 2026-05-07 23:34 | 27.17940 | -80.46811 | 32203 ft | 412 kts | 333° |
| 2026-05-07 23:35 | 27.20609 | -80.47989 | 32567 ft | 412 kts | 333° |
| 2026-05-07 23:35 | 27.23311 | -80.49188 | 32514 ft | 422 kts | 333° |
| 2026-05-07 23:35 | 27.28836 | -80.51668 | 32382 ft | 440 kts | 333° |
| 2026-05-07 23:36 | 27.31728 | -80.52980 | 32529 ft | 443 kts | 333° |
| 2026-05-07 23:36 | 27.34528 | -80.54327 | 32530 ft | 448 kts | 331° |
| 2026-05-07 23:36 | 27.37399 | -80.55771 | 32414 ft | 456 kts | 331° |
| 2026-05-07 23:36 | 27.40397 | -80.57301 | 31686 ft | 477 kts | 330° |
| 2026-05-07 23:37 | 27.43306 | -80.58957 | 31973 ft | 470 kts | 328° |
| 2026-05-07 23:37 | 27.46310 | -80.60386 | 32368 ft | 473 kts | 339° |
| 2026-05-07 23:37 | 27.49533 | -80.61300 | 32216 ft | 485 kts | 346° |
| 2026-05-07 23:37 | 27.52966 | -80.61467 | 31901 ft | 503 kts | 360° |
| 2026-05-07 23:38 | 27.56415 | -80.60567 | 31679 ft | 520 kts | 20° |
| 2026-05-07 23:38 | 27.59357 | -80.58125 | 31084 ft | 541 kts | 49° |
| 2026-05-07 23:38 | 27.60999 | -80.54273 | 29844 ft | 558 kts | 77° |
| 2026-05-07 23:38 | 27.60927 | -80.49901 | 28350 ft | 562 kts | 101° |
| 2026-05-07 23:39 | 27.60075 | -80.45670 | 28503 ft | 539 kts | 103° |
| 2026-05-07 23:39 | 27.59150 | -80.41610 | 27918 ft | 535 kts | 110° |
| 2026-05-07 23:39 | 27.57658 | -80.37843 | 27684 ft | 523 kts | 109° |
| 2026-05-07 23:39 | 27.57645 | -80.33922 | 27718 ft | 491 kts | 58° |
| 2026-05-07 23:40 | 27.59874 | -80.31663 | 29287 ft | 407 kts | 18° |
| 2026-05-07 23:40 | 27.62538 | -80.30431 | 27399 ft | 436 kts | 14° |
| 2026-05-07 23:40 | 27.65643 | -80.30081 | 24818 ft | 467 kts | 336° |
| 2026-05-07 23:40 | 27.67867 | -80.32325 | 24775 ft | 424 kts | 289° |
| 2026-05-07 23:41 | 27.67504 | -80.35430 | 24579 ft | 420 kts | 234° |
| 2026-05-07 23:41 | 27.64807 | -80.36540 | 24263 ft | 451 kts | 177° |
| 2026-05-07 23:41 | 27.61805 | -80.35815 | 24896 ft | 424 kts | 171° |
| 2026-05-07 23:41 | 27.59067 | -80.34991 | 25971 ft | 396 kts | 171° |
| 2026-05-07 23:42 | 27.56393 | -80.34150 | 25758 ft | 405 kts | 170° |
| 2026-05-07 23:42 | 27.53628 | -80.33286 | 25246 ft | 420 kts | 170° |
| 2026-05-07 23:42 | 27.50782 | -80.32393 | 25024 ft | 424 kts | 170° |
| 2026-05-07 23:42 | 27.47992 | -80.31544 | 25540 ft | 405 kts | 171° |
| 2026-05-07 23:43 | 27.45304 | -80.30752 | 25917 ft | 396 kts | 172° |
| 2026-05-07 23:43 | 27.42630 | -80.29972 | 25892 ft | 399 kts | 171° |
| 2026-05-07 23:43 | 27.39918 | -80.29166 | 25751 ft | 405 kts | 171° |
| 2026-05-07 23:43 | 27.37210 | -80.28244 | 25721 ft | 409 kts | 168° |
| 2026-05-07 23:44 | 27.34493 | -80.27284 | 25674 ft | 407 kts | 170° |
| 2026-05-07 23:44 | 27.31770 | -80.26286 | 25387 ft | 418 kts | 166° |
| 2026-05-07 23:44 | 27.28959 | -80.25220 | 24815 ft | 433 kts | 167° |
| 2026-05-07 23:44 | 27.26125 | -80.24166 | 25074 ft | 421 kts | 167° |
| 2026-05-07 23:45 | 27.23408 | -80.23159 | 25639 ft | 404 kts | 168° |
| 2026-05-07 23:45 | 27.20735 | -80.22255 | 25722 ft | 402 kts | 171° |
| 2026-05-07 23:45 | 27.18005 | -80.21389 | 25227 ft | 418 kts | 169° |
| 2026-05-07 23:45 | 27.15209 | -80.20365 | 25047 ft | 422 kts | 167° |
| 2026-05-07 23:46 | 27.12469 | -80.19335 | 25474 ft | 408 kts | 166° |
| 2026-05-07 23:46 | 27.09819 | -80.18273 | 25634 ft | 406 kts | 166° |
| 2026-05-07 23:46 | 27.07082 | -80.17171 | 24662 ft | 433 kts | 165° |
| 2026-05-07 23:46 | 27.04157 | -80.16005 | 23860 ft | 453 kts | 165° |
| 2026-05-07 23:47 | 27.01208 | -80.14848 | 23811 ft | 447 kts | 165° |
| 2026-05-07 23:47 | 26.98217 | -80.13720 | 23130 ft | 456 kts | 168° |
| 2026-05-07 23:47 | 26.95168 | -80.12884 | 23157 ft | 444 kts | 173° |
| 2026-05-07 23:47 | 26.92156 | -80.12162 | 22857 ft | 445 kts | 173° |
| 2026-05-07 23:48 | 26.89098 | -80.11526 | 22258 ft | 450 kts | 175° |
| 2026-05-07 23:48 | 26.85968 | -80.11133 | 21496 ft | 455 kts | 181° |
| 2026-05-07 23:48 | 26.82790 | -80.10953 | 20917 ft | 458 kts | 181° |
| 2026-05-07 23:48 | 26.79631 | -80.10740 | 20745 ft | 451 kts | 180° |
| 2026-05-07 23:49 | 26.76540 | -80.10505 | 20789 ft | 440 kts | 180° |
| 2026-05-07 23:49 | 26.73511 | -80.10266 | 20717 ft | 434 kts | 180° |
| 2026-05-07 23:49 | 26.70488 | -80.10043 | 20418 ft | 435 kts | 180° |
| 2026-05-07 23:49 | 26.67489 | -80.09821 | 20385 ft | 430 kts | 180° |
| 2026-05-07 23:50 | 26.64494 | -80.09587 | 20065 ft | 432 kts | 179° |
| 2026-05-07 23:50 | 26.61502 | -80.09355 | 19916 ft | 430 kts | 180° |
| 2026-05-07 23:50 | 26.58538 | -80.09145 | 19893 ft | 424 kts | 180° |
| 2026-05-07 23:50 | 26.55599 | -80.08913 | 19756 ft | 424 kts | 179° |
| 2026-05-07 23:51 | 26.53647 | -80.08743 | 19593 ft | 425 kts | 179° |
| 2026-05-07 23:51 | 26.50696 | -80.08465 | 19400 ft | 425 kts | 178° |
| 2026-05-07 23:51 | 26.47763 | -80.08189 | 19379 ft | 419 kts | 179° |
| 2026-05-07 23:51 | 26.44857 | -80.07976 | 19258 ft | 418 kts | 179° |
| 2026-05-07 23:52 | 26.41943 | -80.07727 | 18979 ft | 422 kts | 178° |
| 2026-05-07 23:52 | 26.39016 | -80.07455 | 18728 ft | 424 kts | 178° |
| 2026-05-07 23:52 | 26.36081 | -80.07164 | 18658 ft | 421 kts | 177° |
| 2026-05-07 23:52 | 26.33169 | -80.06851 | 18482 ft | 422 kts | 176° |
| 2026-05-07 23:53 | 26.30240 | -80.06518 | 18164 ft | 425 kts | 176° |
| 2026-05-07 23:53 | 26.27266 | -80.06221 | 17459 ft | 434 kts | 177° |
| 2026-05-07 23:53 | 26.24196 | -80.05910 | 16050 ft | 454 kts | 176° |
| 2026-05-07 23:53 | 26.20992 | -80.05876 | 14746 ft | 466 kts | 190° |
| 2026-05-07 23:54 | 26.18053 | -80.07148 | 14625 ft | 443 kts | 212° |
| 2026-05-07 23:54 | 26.15736 | -80.09325 | 14018 ft | 438 kts | 229° |
| 2026-05-07 23:54 | 26.14091 | -80.12210 | 12462 ft | 450 kts | 246° |
| 2026-05-07 23:54 | 26.13208 | -80.15604 | 10668 ft | 466 kts | 261° |
| 2026-05-07 23:55 | 26.13143 | -80.19213 | 9179 ft | 470 kts | 275° |
| 2026-05-07 23:55 | 26.13473 | -80.22791 | 8317 ft | 458 kts | 276° |
| 2026-05-07 23:55 | 26.13820 | -80.26244 | 7852 ft | 440 kts | 277° |
| 2026-05-07 23:55 | 26.14193 | -80.29572 | 7448 ft | 427 kts | 277° |
| 2026-05-07 23:56 | 26.14504 | -80.32834 | 6885 ft | 422 kts | 275° |
| 2026-05-07 23:56 | 26.14714 | -80.36087 | 6274 ft | 420 kts | 274° |
| 2026-05-07 23:56 | 26.14830 | -80.39292 | 6080 ft | 405 kts | 272° |
| 2026-05-07 23:56 | 26.14837 | -80.42313 | 6379 ft | 371 kts | 270° |
| 2026-05-07 23:57 | 26.14780 | -80.44995 | 7016 ft | 315 kts | 269° |
| 2026-05-07 23:57 | 26.14678 | -80.47281 | 7220 ft | 275 kts | 266° |
| 2026-05-07 23:57 | 26.14521 | -80.49328 | 6941 ft | 263 kts | 264° |
| 2026-05-07 23:57 | 26.14329 | -80.51267 | 7097 ft | 240 kts | 264° |
| 2026-05-07 23:58 | 26.14079 | -80.53096 | 6888 ft | 242 kts | 255° |
| 2026-05-07 23:58 | 26.13216 | -80.54658 | 6874 ft | 235 kts | 223° |
| 2026-05-07 23:58 | 26.11884 | -80.55706 | 6841 ft | 234 kts | 207° |
| 2026-05-07 23:58 | 26.10343 | -80.56169 | 6742 ft | 236 kts | 182° |
| 2026-05-07 23:59 | 26.08766 | -80.55740 | 6562 ft | 238 kts | 150° |
| 2026-05-07 23:59 | 26.07667 | -80.54395 | 6363 ft | 240 kts | 115° |
| 2026-05-07 23:59 | 26.07376 | -80.52596 | 6296 ft | 237 kts | 92° |
| 2026-05-07 23:59 | 26.07341 | -80.50772 | 6312 ft | 235 kts | 88° |
| 2026-05-08 00:00 | 26.07394 | -80.48953 | 6324 ft | 234 kts | 85° |
| 2026-05-08 00:00 | 26.07521 | -80.47149 | 6348 ft | 232 kts | 84° |
| 2026-05-08 00:00 | 26.07690 | -80.45379 | 6426 ft | 231 kts | 82° |
| 2026-05-08 00:00 | 26.07862 | -80.43596 | 6461 ft | 232 kts | 82° |
| 2026-05-08 00:01 | 26.08026 | -80.41781 | 6364 ft | 236 kts | 83° |
| 2026-05-08 00:01 | 26.08181 | -80.39945 | 6239 ft | 240 kts | 83° |
| 2026-05-08 00:01 | 26.08153 | -80.38142 | 6451 ft | 231 kts | 92° |
| 2026-05-08 00:01 | 26.08057 | -80.36263 | 5888 ft | 255 kts | 91° |
| 2026-05-08 00:02 | 26.07982 | -80.34305 | 5686 ft | 255 kts | 92° |
| 2026-05-08 00:02 | 26.07836 | -80.32298 | 5212 ft | 263 kts | 94° |
| 2026-05-08 00:02 | 26.07712 | -80.30301 | 4922 ft | 262 kts | 91° |
| 2026-05-08 00:02 | 26.07676 | -80.28217 | 4052 ft | 277 kts | 89° |
| 2026-05-08 00:03 | 26.07740 | -80.26031 | 3176 ft | 285 kts | 88° |
| 2026-05-08 00:03 | 26.07829 | -80.23889 | 2940 ft | 268 kts | 91° |
| 2026-05-08 00:03 | 26.07835 | -80.21853 | 2549 ft | 263 kts | 90° |
| 2026-05-08 00:03 | 26.07768 | -80.19808 | 2018 ft | 262 kts | 95° |